Mountain Fork, Arkansas
Current Conditions -  °F | °C
As of 6:55 AM on Saturday 20 Dec 2014 (Local Time) from KMEZ Reporting Station
Overcast Overcast  
Wind Chill: 43°   Ceiling: 400
Heat Index: 43°   Visibility: 3mi
Dew Point: 43°   Wind: 0mph
Humidity: 100%   Direction: NA
Pressure: 30.23"   Gusts: NA
Location:  34.592°N, 94.1901°W
Report Text: KMEZ 201255Z AUTO 00000KT 3SM OVC004 06/06 A3023 RMK AO2
Loading
Personal Weather Stations






























Interactive Weather Map New forecast layout! Learn more

10-Day Weather Forecast

Advertisements
Track Severe Weather on mobile